Izaña en Tenerife

latitud = 28° 18' 32''N | longitud = 016° 29' 58''W
2371 metros sobre el nivel del mar | datos mensuales

Fecha, hora, temperatura, viento dirección y velocidad, humedad y presión.

  • 16-08-2018 01:00:00 | 12.00°C | Noroeste |44.00 km/h | 69.00% | 775.70 hPa
  • 16-08-2018 00:00:00 | 11.80°C | Noroeste |39.00 km/h | 66.00% | 776.10 hPa
  • 15-08-2018 23:00:00 | 12.00°C | Noroeste |38.00 km/h | 67.00% | 776.00 hPa
  • 15-08-2018 22:00:00 | 12.80°C | Noroeste |31.00 km/h | 72.00% | 776.00 hPa
  • 15-08-2018 21:00:00 | 13.40°C | Noroeste |32.00 km/h | 71.00% | 775.70 hPa
  • 15-08-2018 20:00:00 | 15.70°C | Noroeste |27.00 km/h | 60.00% | 775.70 hPa
  • 15-08-2018 19:00:00 | 16.90°C | Noroeste |29.00 km/h | 59.00% | 775.70 hPa
  • 15-08-2018 18:00:00 | 18.40°C | Noroeste |30.00 km/h | 59.00% | 775.70 hPa
  • 15-08-2018 17:00:00 | 19.00°C | Noroeste |29.00 km/h | 56.00% | 775.80 hPa
  • 15-08-2018 16:00:00 | 19.50°C | Noroeste |31.00 km/h | 57.00% | 776.00 hPa
  • 15-08-2018 15:00:00 | 19.80°C | Noroeste |32.00 km/h | 55.00% | 776.30 hPa
  • 15-08-2018 14:00:00 | 20.40°C | Norte |24.00 km/h | 53.00% | 776.70 hPa
  • 15-08-2018 13:00:00 | 19.70°C | Noroeste |29.00 km/h | 59.00% | 776.80 hPa
  • 15-08-2018 12:00:00 | 19.10°C | Norte |21.00 km/h | 59.00% | 777.10 hPa
  • 15-08-2018 11:00:00 | 18.10°C | Norte |15.00 km/h | 68.00% | 776.90 hPa
  • 15-08-2018 10:00:00 | 16.90°C | Norte |12.00 km/h | 75.00% | 776.50 hPa
  • 15-08-2018 09:00:00 | 15.80°C | Noroeste |20.00 km/h | 75.00% | 776.30 hPa
  • 15-08-2018 08:00:00 | 14.80°C | Noroeste |23.00 km/h | 78.00% | 775.90 hPa
  • 15-08-2018 07:00:00 | 14.50°C | Noroeste |25.00 km/h | 79.00% | 775.70 hPa
  • 15-08-2018 06:00:00 | 14.40°C | Noroeste |24.00 km/h | 80.00% | 775.60 hPa
  • 15-08-2018 05:00:00 | 14.10°C | Noroeste |20.00 km/h | 85.00% | 775.60 hPa
  • 15-08-2018 04:00:00 | 13.70°C | Noroeste |19.00 km/h | 93.00% | 775.50 hPa
  • 15-08-2018 03:00:00 | 13.40°C | Noroeste |18.00 km/h | 96.00% | 775.80 hPa
  • 15-08-2018 02:00:00 | 13.50°C | Noroeste |12.00 km/h | 95.00% | 776.30 hPa